createdAt,value
2019-05-28T00:22:54.265Z,99.90
2019-05-28T00:25:28.595Z,99.90
2019-05-28T00:27:56.910Z,99.90
2019-05-28T00:30:27.390Z,99.90
2019-05-28T00:32:57.806Z,99.90
2019-05-28T00:35:28.451Z,99.90
2019-05-28T00:37:58.866Z,99.90
2019-05-28T00:40:29.302Z,99.90
2019-05-28T00:42:59.730Z,99.90
2019-05-28T00:45:30.326Z,99.90
2019-05-28T00:48:00.832Z,99.90
2019-05-28T00:50:31.421Z,99.90
2019-05-28T00:53:01.854Z,99.90
2019-05-28T00:55:32.276Z,99.90
2019-05-28T00:58:03.214Z,99.90
2019-05-28T01:00:52.694Z,99.90
2019-05-28T01:03:23.115Z,99.90
2019-05-28T01:05:53.530Z,99.90
2019-05-28T01:08:23.976Z,99.90
2019-05-28T01:10:54.562Z,99.90
2019-05-28T01:13:25.027Z,99.90
2019-05-28T01:15:55.457Z,99.90
2019-05-28T01:18:25.871Z,99.90
2019-05-28T01:20:56.299Z,99.90
2019-05-28T01:23:26.726Z,99.90
2019-05-28T01:25:57.149Z,99.90
2019-05-28T01:28:27.593Z,99.90
2019-05-28T01:31:00.856Z,99.90
2019-05-28T01:33:30.235Z,99.90
2019-05-28T01:36:00.702Z,99.90
2019-05-28T01:38:31.139Z,99.90
2019-05-28T01:41:01.565Z,99.90
2019-05-28T01:43:31.995Z,99.90
2019-05-28T01:46:03.703Z,99.90
2019-05-28T01:48:34.234Z,99.90
2019-05-28T01:51:04.809Z,99.90
2019-05-28T01:53:35.237Z,99.90
2019-05-28T01:56:05.668Z,99.90
2019-05-28T01:58:36.095Z,99.90
2019-05-28T02:01:12.643Z,99.90
2019-05-28T02:03:38.632Z,99.90
2019-05-28T02:06:09.114Z,99.90
2019-05-28T02:08:39.543Z,99.90
2019-05-28T02:11:09.957Z,99.90
2019-05-28T02:13:40.383Z,99.90
2019-05-28T02:16:10.821Z,99.90
2019-05-28T02:18:41.240Z,99.90
2019-05-28T02:21:11.679Z,99.90
2019-05-28T02:23:42.103Z,99.90
2019-05-28T02:26:12.530Z,99.90
2019-05-28T02:28:42.945Z,99.90
2019-05-28T02:31:26.932Z,99.90
2019-05-28T02:33:45.602Z,99.90
2019-05-28T02:36:16.286Z,99.90
2019-05-28T02:38:46.712Z,99.90
2019-05-28T02:41:17.139Z,99.90
2019-05-28T02:43:47.554Z,99.90
2019-05-28T02:46:18.044Z,99.90
2019-05-28T02:48:48.567Z,99.90
2019-05-28T02:51:19.666Z,99.90
2019-05-28T02:53:50.196Z,99.90
2019-05-28T02:56:21.919Z,99.90
2019-05-28T02:58:54.395Z,99.90
2019-05-28T03:01:25.969Z,99.90
2019-05-28T03:03:58.560Z,99.90
2019-05-28T03:06:30.895Z,99.90
2019-05-28T03:09:04.411Z,99.90
2019-05-28T03:11:34.858Z,99.90
2019-05-28T03:14:05.274Z,99.90
2019-05-28T03:16:38.646Z,99.90
2019-05-28T03:19:47.202Z,99.90
2019-05-28T04:07:17.181Z,99.90
2019-05-28T04:09:47.652Z,99.90
2019-05-28T04:12:18.078Z,99.90
2019-05-28T04:14:48.515Z,99.90
2019-05-28T04:17:18.940Z,99.90
2019-05-28T04:19:49.466Z,99.90
2019-05-28T04:22:19.892Z,99.90
2019-05-28T04:24:50.306Z,99.90
2019-05-28T04:27:20.738Z,99.90
2019-05-28T04:29:51.269Z,99.90
2019-05-28T04:32:22.006Z,99.90
2019-05-28T04:34:52.497Z,99.90
2019-05-28T04:37:22.955Z,99.90
2019-05-28T04:39:53.440Z,99.90
2019-05-28T04:42:23.906Z,99.90
2019-05-28T04:44:54.334Z,99.90
2019-05-28T04:47:24.822Z,99.90
2019-05-28T04:49:55.449Z,99.90
2019-05-28T04:52:26.140Z,99.90
2019-05-28T04:54:56.564Z,99.90
2019-05-28T04:57:26.993Z,99.90
2019-05-28T04:59:57.420Z,99.90
2019-05-28T05:02:27.848Z,99.90
2019-05-28T05:04:58.274Z,99.90
2019-05-28T05:07:28.703Z,99.90
2019-05-28T05:09:59.175Z,99.90
2019-05-28T05:12:29.646Z,99.90
2019-05-28T05:15:00.171Z,99.90
2019-05-28T05:17:30.615Z,99.90
2019-05-28T05:20:01.135Z,99.90
2019-05-28T05:22:31.593Z,99.90
2019-05-28T05:25:02.162Z,99.90
2019-05-28T05:27:32.632Z,99.90
2019-05-28T05:30:03.095Z,99.90
2019-05-28T05:32:33.482Z,99.90
2019-05-28T05:35:03.913Z,99.90
2019-05-28T05:37:34.337Z,99.90
2019-05-28T05:40:05.322Z,99.90
2019-05-28T05:42:35.850Z,99.90
2019-05-28T05:45:07.755Z,99.90
2019-05-28T05:47:38.447Z,99.90
2019-05-28T05:50:09.343Z,99.90
2019-05-28T05:52:39.887Z,99.90
2019-05-28T05:55:11.002Z,99.90
2019-05-28T05:57:41.444Z,99.90
2019-05-28T06:00:12.981Z,99.90
2019-05-28T06:02:43.443Z,99.90
2019-05-28T06:05:14.257Z,99.90
2019-05-28T06:07:44.740Z,99.90
2019-05-28T06:10:16.227Z,99.90
2019-05-28T06:12:46.707Z,99.90
2019-05-28T06:15:17.501Z,99.90
2019-05-28T06:17:47.919Z,99.90
2019-05-28T06:20:18.867Z,99.90
2019-05-28T06:22:49.294Z,99.90
2019-05-28T06:25:19.938Z,99.90
2019-05-28T06:27:50.449Z,99.90
2019-05-28T06:30:21.295Z,99.90
2019-05-28T06:32:51.725Z,99.90
2019-05-28T06:35:22.247Z,99.90
2019-05-28T06:37:52.848Z,99.90
2019-05-28T06:40:24.433Z,99.90
2019-05-28T06:42:55.066Z,99.90
2019-05-28T06:45:25.535Z,99.90
2019-05-28T06:52:55.340Z,99.90
2019-05-28T06:55:25.768Z,99.90
2019-05-28T06:57:56.193Z,99.90
2019-05-28T07:00:26.722Z,99.90
2019-05-28T07:02:57.342Z,99.90
2019-05-28T07:05:27.782Z,99.90
2019-05-28T07:07:58.198Z,99.90
2019-05-28T07:10:29.018Z,99.90
2019-05-28T07:12:59.565Z,99.90
2019-05-28T07:15:30.156Z,99.90
2019-05-28T07:18:00.632Z,99.90
2019-05-28T07:20:32.088Z,99.90
2019-05-28T07:23:02.498Z,99.90
2019-05-28T07:25:33.106Z,99.90
2019-05-28T07:28:11.226Z,99.90
2019-05-28T07:30:36.134Z,99.90
2019-05-28T07:33:06.674Z,99.90
2019-05-28T07:35:45.936Z,99.90
2019-05-28T07:38:09.260Z,99.90
2019-05-28T07:40:39.699Z,99.90
2019-05-28T07:43:10.123Z,99.90
2019-05-28T07:45:40.819Z,99.90
2019-05-28T07:48:11.330Z,99.90
2019-05-28T07:50:42.080Z,99.90
2019-05-28T07:53:12.773Z,99.90
2019-05-28T07:58:14.734Z,99.90
2019-05-28T08:00:46.452Z,99.90
2019-05-28T08:03:18.558Z,99.90
2019-05-28T08:05:48.985Z,99.90
2019-05-28T08:08:21.200Z,99.90
2019-05-28T08:10:51.785Z,99.90
2019-05-28T08:13:22.214Z,99.40
2019-05-28T08:15:52.637Z,97.40
2019-05-28T08:18:23.190Z,97.60
2019-05-28T08:20:53.698Z,97.30
2019-05-28T08:23:24.114Z,93.90
2019-05-28T08:25:54.553Z,93.70
2019-05-28T08:28:24.977Z,94.60
2019-05-28T08:31:04.610Z,96.20
2019-05-28T08:33:27.472Z,96.80
2019-05-28T08:35:57.898Z,97.40
2019-05-28T08:38:28.427Z,98.60
2019-05-28T08:40:59.019Z,99.90
2019-05-28T08:43:29.473Z,99.90
2019-05-28T08:45:59.905Z,97.70
2019-05-28T08:48:30.384Z,96.10
2019-05-28T08:51:01.082Z,95.60
2019-05-28T08:53:31.695Z,94.20
2019-05-28T08:56:02.224Z,95.90
2019-05-28T08:58:32.869Z,96.60
2019-05-28T09:01:03.339Z,97.60
2019-05-28T09:03:33.813Z,97.20
2019-05-28T09:06:04.252Z,97.50
2019-05-28T09:08:39.283Z,98.60
2019-05-28T09:11:07.306Z,99.40
2019-05-28T09:13:38.194Z,99.90
2019-05-28T09:16:08.826Z,99.90
2019-05-28T09:18:39.460Z,99.90
2019-05-28T09:21:09.935Z,99.90
2019-05-28T09:23:40.401Z,99.90
2019-05-28T09:26:10.853Z,99.90
2019-05-28T09:28:41.306Z,99.90
2019-05-28T09:31:12.706Z,99.90
2019-05-28T09:33:43.135Z,99.50
2019-05-28T09:36:14.896Z,99.90
2019-05-28T09:38:46.660Z,99.00
2019-05-28T09:41:17.103Z,95.90
2019-05-28T09:43:49.043Z,94.50
2019-05-28T09:46:20.912Z,91.40
2019-05-28T09:48:51.406Z,84.00
2019-05-28T09:51:22.117Z,79.70
2019-05-28T09:53:53.011Z,67.80
2019-05-28T09:56:23.430Z,64.00
2019-05-28T09:58:53.854Z,57.90
2019-05-28T10:01:24.594Z,56.00
2019-05-28T10:03:55.014Z,58.20
2019-05-28T10:06:36.872Z,56.90
2019-05-28T10:08:57.521Z,52.40
2019-05-28T10:11:27.950Z,49.20
2019-05-28T10:13:58.478Z,52.80
2019-05-28T10:16:28.890Z,54.40
2019-05-28T10:18:59.337Z,57.70
2019-05-28T10:21:29.746Z,60.10
2019-05-28T10:24:00.225Z,73.70
2019-05-28T10:26:30.919Z,90.00
2019-05-28T10:29:01.333Z,99.10
2019-05-28T10:31:31.767Z,99.90
2019-05-28T10:34:02.231Z,99.90
2019-05-28T10:36:36.497Z,99.90
2019-05-28T10:39:06.067Z,99.90
2019-05-28T10:41:36.543Z,96.50
2019-05-28T10:44:06.979Z,85.00
2019-05-28T10:46:37.395Z,66.40
2019-05-28T10:49:07.876Z,59.60
2019-05-28T10:51:38.511Z,60.40
2019-05-28T10:54:09.962Z,65.90
2019-05-28T10:56:40.504Z,64.70
2019-05-28T10:59:10.975Z,58.50
2019-05-28T11:01:41.501Z,53.30
2019-05-28T11:04:11.917Z,56.20
2019-05-28T11:06:51.400Z,57.80
2019-05-28T11:09:14.631Z,59.50
2019-05-28T11:11:46.082Z,58.10
2019-05-28T11:14:16.527Z,57.50
2019-05-28T11:16:46.933Z,59.90
2019-05-28T11:19:17.369Z,63.30
2019-05-28T11:21:47.790Z,62.60
2019-05-28T11:24:18.424Z,63.80
2019-05-28T11:26:48.889Z,61.70
2019-05-28T11:29:19.362Z,63.20
2019-05-28T11:31:49.791Z,65.00
2019-05-28T11:34:20.239Z,68.10
2019-05-28T11:36:50.672Z,65.40
2019-05-28T11:39:21.083Z,59.90
2019-05-28T11:41:52.541Z,59.80
2019-05-28T11:44:23.070Z,61.80
2019-05-28T11:46:53.487Z,60.70
2019-05-28T11:49:23.968Z,58.90
2019-05-28T11:51:54.600Z,59.80
2019-05-28T11:54:26.333Z,60.90
2019-05-28T11:56:57.108Z,64.60
2019-05-28T11:59:27.821Z,67.80
2019-05-28T12:01:59.043Z,67.80
2019-05-28T12:04:30.089Z,59.90
2019-05-28T12:07:01.247Z,58.20
2019-05-28T12:09:32.068Z,59.70
2019-05-28T12:12:03.155Z,62.60
2019-05-28T12:14:34.355Z,66.60
2019-05-28T12:17:05.462Z,70.30
2019-05-28T12:19:36.164Z,67.40
2019-05-28T12:22:07.294Z,60.00
2019-05-28T12:24:38.297Z,61.00
2019-05-28T12:27:09.730Z,65.70
2019-05-28T12:29:51.465Z,64.50
2019-05-28T12:32:13.977Z,60.10
2019-05-28T12:34:45.053Z,53.90
2019-05-28T12:37:15.764Z,51.50
2019-05-28T12:39:48.040Z,53.20
2019-05-28T12:42:18.756Z,53.20
2019-05-28T12:45:07.971Z,56.10
2019-05-28T12:47:22.191Z,61.20
2019-05-28T12:49:54.745Z,63.90
2019-05-28T12:52:25.742Z,67.30
2019-05-28T12:54:56.224Z,65.60
2019-05-28T12:57:26.634Z,64.10
2019-05-28T12:59:57.176Z,64.80
2019-05-28T13:02:27.604Z,65.20
2019-05-28T13:04:58.030Z,64.10
2019-05-28T13:07:28.457Z,61.60
2019-05-28T13:09:58.881Z,52.20
2019-05-28T13:12:30.560Z,51.40
2019-05-28T13:15:02.302Z,53.70
2019-05-28T13:17:32.825Z,57.60
2019-05-28T13:20:03.271Z,58.30
2019-05-28T13:22:33.802Z,63.60
2019-05-28T13:25:04.208Z,66.60
2019-05-28T13:27:34.639Z,61.10
2019-05-28T13:30:05.391Z,52.30
2019-05-28T13:32:35.746Z,48.30
2019-05-28T13:35:07.407Z,50.30
2019-05-28T13:37:37.884Z,53.60
2019-05-28T13:40:08.832Z,56.40
2019-05-28T13:42:39.350Z,61.00
2019-05-28T13:45:11.584Z,62.70
2019-05-28T13:47:42.054Z,57.20
2019-05-28T13:50:13.018Z,54.60
2019-05-28T13:52:43.659Z,56.00
2019-05-28T13:55:14.559Z,56.50
2019-05-28T13:57:44.984Z,58.40
2019-05-28T14:00:17.401Z,60.60
2019-05-28T14:02:48.131Z,64.80
2019-05-28T14:05:20.214Z,70.90
2019-05-28T14:07:50.684Z,73.60
2019-05-28T14:10:22.237Z,66.60
2019-05-28T14:12:52.664Z,58.40
2019-05-28T14:15:24.010Z,57.30
2019-05-28T14:17:54.443Z,54.70
2019-05-28T14:20:25.139Z,55.20
2019-05-28T14:22:55.602Z,56.10
2019-05-28T14:25:26.297Z,58.70
2019-05-28T14:27:56.750Z,60.10
2019-05-28T14:30:27.563Z,55.50
2019-05-28T14:32:58.024Z,52.40
2019-05-28T14:35:28.494Z,51.00
2019-05-28T14:37:58.971Z,50.50
2019-05-28T14:40:29.424Z,51.00
2019-05-28T14:42:59.832Z,52.10
2019-05-28T14:45:30.384Z,53.00
2019-05-28T14:48:00.780Z,54.90
2019-05-28T14:50:31.263Z,52.50
2019-05-28T14:53:01.795Z,50.80
2019-05-28T14:55:32.382Z,51.60
2019-05-28T14:58:05.705Z,55.50
2019-05-28T15:00:34.976Z,60.00
2019-05-28T15:03:05.408Z,62.30
2019-05-28T15:05:35.919Z,57.60
2019-05-28T15:08:06.366Z,56.10
2019-05-28T15:10:36.787Z,58.80
2019-05-28T15:13:08.745Z,60.80
2019-05-28T15:15:39.163Z,66.40
2019-05-28T15:18:10.733Z,68.30
2019-05-28T15:20:41.155Z,68.80
2019-05-28T15:23:11.569Z,72.80
2019-05-28T15:25:41.997Z,75.30
2019-05-28T15:28:12.643Z,73.90
2019-05-28T15:30:43.070Z,73.00
2019-05-28T15:33:13.495Z,75.00
2019-05-28T15:35:43.960Z,73.90
2019-05-28T15:38:14.504Z,76.40
2019-05-28T15:40:44.979Z,78.80
2019-05-28T15:43:15.405Z,77.10
2019-05-28T15:45:45.881Z,78.20
2019-05-28T15:48:16.360Z,76.60
2019-05-28T15:50:46.840Z,77.20
2019-05-28T15:53:17.361Z,76.50
2019-05-28T15:55:48.147Z,76.60
2019-05-28T15:58:18.586Z,77.30
2019-05-28T16:00:49.011Z,77.50
2019-05-28T16:03:19.440Z,78.30
2019-05-28T16:05:51.092Z,77.90
2019-05-28T16:08:21.567Z,76.20
2019-05-28T16:10:52.057Z,78.00
2019-05-28T16:13:22.466Z,77.40
2019-05-28T16:15:54.338Z,80.40
2019-05-28T16:18:24.868Z,80.00
2019-05-28T16:20:55.301Z,78.10
2019-05-28T16:23:25.709Z,79.50
2019-05-28T16:25:56.147Z,78.80
2019-05-28T16:28:26.562Z,81.70
2019-05-28T16:31:11.968Z,83.00
2019-05-28T16:33:29.071Z,83.40
2019-05-28T16:35:59.497Z,82.40
2019-05-28T16:38:30.840Z,84.10
2019-05-28T16:41:01.322Z,83.10
2019-05-28T16:43:31.918Z,85.20
2019-05-28T16:46:03.664Z,86.20
2019-05-28T16:48:34.087Z,85.80
2019-05-28T16:51:04.523Z,88.40
2019-05-28T16:53:34.990Z,89.40
2019-05-28T16:56:06.508Z,88.90
2019-05-28T16:58:37.016Z,89.00
2019-05-28T17:01:21.906Z,89.30
2019-05-28T17:03:39.606Z,89.60
2019-05-28T17:06:10.058Z,90.00
2019-05-28T17:08:40.471Z,90.60
2019-05-28T17:11:11.048Z,86.90
2019-05-28T17:13:47.616Z,87.90
2019-05-28T17:16:13.594Z,88.50
2019-05-28T17:18:44.311Z,88.80
2019-05-28T17:21:14.991Z,88.30
2019-05-28T17:23:45.387Z,90.30
2019-05-28T17:26:15.815Z,91.10
2019-05-28T17:28:46.243Z,92.00
2019-05-28T17:31:16.667Z,93.10
2019-05-28T17:33:47.094Z,93.40
2019-05-28T17:36:17.525Z,94.00
2019-05-28T17:38:47.959Z,94.70
2019-05-28T17:41:20.010Z,94.80
2019-05-28T17:43:50.791Z,95.50
2019-05-28T17:46:22.645Z,95.80
2019-05-28T17:48:53.139Z,94.70
2019-05-28T17:51:23.569Z,94.90
2019-05-28T17:53:54.040Z,94.80
2019-05-28T18:03:53.653Z,96.30
2019-05-28T18:06:24.208Z,99.90
2019-05-28T18:08:54.711Z,99.90
2019-05-28T18:11:25.138Z,99.90
2019-05-28T18:13:55.570Z,99.90
2019-05-28T18:16:26.046Z,99.90
2019-05-28T18:19:00.423Z,99.90
2019-05-28T18:21:28.588Z,99.90
2019-05-28T18:23:59.028Z,99.90
2019-05-28T18:26:29.543Z,99.90
2019-05-28T18:28:59.970Z,99.90
2019-05-28T18:31:51.086Z,99.90
2019-05-28T18:34:21.582Z,99.90
2019-05-28T18:36:52.039Z,99.90
2019-05-28T18:39:25.464Z,99.90
2019-05-28T18:41:54.739Z,99.90
2019-05-28T18:44:25.381Z,99.90
2019-05-28T18:46:55.942Z,99.90
2019-05-28T18:49:26.427Z,99.90
2019-05-28T18:51:57.877Z,99.90
2019-05-28T18:54:29.465Z,99.90
2019-05-28T18:57:00.269Z,99.90
2019-05-28T18:59:30.827Z,99.90
2019-05-28T19:02:01.347Z,99.90
2019-05-28T19:04:31.962Z,99.90
2019-05-28T19:07:02.489Z,99.90
2019-05-28T19:09:33.016Z,99.90
2019-05-28T19:12:03.444Z,99.90
2019-05-28T19:14:33.870Z,99.90
2019-05-28T19:17:04.299Z,99.90
2019-05-28T19:19:34.970Z,99.90
2019-05-28T19:22:05.462Z,99.90
2019-05-28T19:24:35.890Z,99.90
2019-05-28T19:27:06.597Z,99.90
2019-05-28T19:29:37.148Z,99.90
2019-05-28T19:32:07.577Z,99.90
2019-05-28T19:34:38.180Z,99.90
2019-05-28T19:37:08.637Z,99.90
2019-05-28T19:39:39.533Z,99.90
2019-05-28T19:42:10.119Z,99.90
2019-05-28T19:44:40.528Z,99.90
2019-05-28T19:47:11.481Z,99.90
2019-05-28T19:49:42.067Z,99.90
2019-05-28T19:52:12.840Z,99.90
2019-05-28T19:54:43.774Z,99.90
2019-05-28T19:57:15.568Z,99.90
2019-05-28T19:59:46.299Z,99.90
2019-05-28T20:02:16.924Z,99.90
2019-05-28T20:04:47.327Z,99.90
2019-05-28T20:24:45.795Z,99.90
2019-05-28T20:27:16.261Z,99.90
2019-05-28T20:29:47.147Z,99.90
2019-05-28T20:32:17.618Z,99.90
2019-05-28T20:34:48.045Z,99.90
2019-05-28T20:37:18.472Z,99.90
2019-05-28T20:39:49.274Z,99.90
2019-05-28T20:42:27.383Z,99.90
2019-05-28T20:47:22.635Z,99.90
2019-05-28T20:49:53.194Z,99.90
2019-05-28T20:52:25.018Z,99.90
2019-05-28T20:54:55.497Z,99.90
2019-05-28T20:57:26.027Z,99.90
2019-05-28T20:59:57.774Z,99.90
2019-05-28T21:02:28.261Z,99.90
2019-05-28T21:04:58.928Z,99.90
2019-05-28T21:07:29.437Z,99.90
2019-05-28T21:10:00.986Z,99.90
2019-05-28T21:12:43.330Z,99.90
2019-05-28T21:15:03.724Z,99.90
2019-05-28T21:17:34.433Z,99.90
2019-05-28T21:20:05.342Z,99.90
2019-05-28T21:22:35.793Z,99.90
2019-05-28T21:25:07.268Z,99.90
2019-05-28T21:27:37.790Z,99.90
2019-05-28T21:30:09.017Z,99.90
2019-05-28T21:32:39.426Z,99.90
2019-05-28T21:35:09.854Z,99.90
2019-05-28T21:42:39.510Z,99.90
2019-05-28T21:45:10.446Z,99.90
2019-05-28T21:47:40.979Z,99.90
2019-05-28T21:50:13.169Z,99.90
2019-05-28T21:52:43.662Z,99.90
2019-05-28T21:55:14.729Z,99.90
2019-05-28T21:57:45.291Z,99.90
2019-05-28T22:00:27.856Z,99.90
2019-05-28T22:02:58.575Z,99.90
2019-05-28T22:05:29.109Z,99.90
2019-05-28T22:07:59.549Z,99.90
2019-05-28T22:10:31.406Z,99.90
2019-05-28T22:13:18.228Z,99.90
2019-05-28T22:15:34.928Z,99.90
2019-05-28T22:18:06.566Z,99.90
2019-05-28T22:20:37.012Z,99.90
2019-05-28T22:23:08.704Z,99.90
2019-05-28T22:25:40.614Z,99.90
2019-05-28T22:28:11.098Z,99.90
2019-05-28T22:30:41.682Z,99.90
2019-05-28T22:33:13.331Z,99.90
2019-05-28T22:35:43.753Z,99.90
2019-05-28T22:38:14.218Z,99.90
2019-05-28T22:40:44.928Z,99.90
2019-05-28T22:43:30.428Z,99.90
2019-05-28T22:45:47.418Z,99.90
2019-05-28T22:48:18.330Z,99.90
2019-05-28T22:50:48.994Z,99.90
2019-05-28T22:53:19.418Z,99.90
2019-05-28T22:58:19.910Z,99.90
2019-05-28T23:00:50.705Z,99.90
2019-05-28T23:03:21.125Z,99.90
2019-05-28T23:05:51.552Z,99.90
2019-05-28T23:08:21.981Z,99.90
2019-05-28T23:10:56.860Z,99.90
2019-05-28T23:13:26.510Z,99.90
2019-05-28T23:15:56.945Z,99.90
2019-05-28T23:18:27.477Z,99.90
2019-05-28T23:20:57.903Z,99.90
2019-05-28T23:23:28.329Z,99.90
2019-05-28T23:25:58.757Z,99.90
2019-05-28T23:28:29.200Z,99.90
2019-05-28T23:30:59.773Z,99.90
2019-05-28T23:33:30.251Z,99.90
2019-05-28T23:36:00.672Z,99.90
2019-05-28T23:38:31.087Z,99.90
2019-05-28T23:41:01.734Z,99.90
2019-05-28T23:43:33.377Z,99.90
2019-05-28T23:46:04.428Z,99.90
2019-05-28T23:48:35.057Z,99.90
2019-05-28T23:51:06.329Z,99.90
2019-05-28T23:53:36.823Z,99.90
2019-05-28T23:56:07.607Z,99.90
2019-05-28T23:58:38.147Z,99.90
